SKLT/LET METAR and TAF weather

Enter ICAO airport designator
Station Type Date Time Source
SKLT METAR 2022/12/04 10:00 UTC NOAA

SKLT 041000Z 00000KT 9999 SCT010 BKN100 23/22 Q1008 RMK A2977


Station Type Date Time Source
SKLT Decoded METAR 2022/12/04 10:00 UTC NOAA

Leticia / Vasquez Cobo, Colombia (SKLT) 04-10S 069-57W 84M
Dec 04, 2022 - 05:00 AM EST / 2022.12.04 1000 UTC
Wind: Calm:0
Visibility: greater than 7 mile(s):0
Sky conditions: mostly cloudy
Temperature: 73 F (23 C)
Dew Point: 71 F (22 C)
Relative Humidity: 94%
Pressure (altimeter): 29.77 in. Hg (1008 hPa)
ob: SKLT 041000Z 00000KT 9999 SCT010 BKN100 23/22 Q1008 RMK A2977
cycle: 10

Station Type Date Time Source
SKLT TAF 2022/12/04 12:45 UTC NOAA

TAF SKLT 041030Z 0412/0512 00000KT 9999 FEW010
BECMG 0415/0417 24006KT SCT015 PROB40
TEMPO 0418/0421 DZ BKN010
BECMG 0501/0503 VRB02KT SCT010 TX33/0418Z TN23/0510Z

Example: see airport list